Time;durP1;ratioP1;P1;durP2;ratioP2;P2;SDS_P1;SDS_P2;PMS_P1;PMS_P2;Temp;Humidity;BMP_temperature;BMP_pressure;BME280_temperature;BME280_humidity;BME280_pressure;Samples;Min_cycle;Max_cycle;Signal;HPM_P1;HPM_P2
2023/01/04 00:00:16;;;;;;;9.70;4.10;;;;;;;;;;5067096;28;20036;-68
2023/01/04 00:02:42;;;;;;;8.82;4.45;;;;;;;;;;5071240;28;20036;-68
2023/01/04 00:05:08;;;;;;;9.23;4.63;;;;;;;;;;5075175;28;20393;-68
2023/01/04 00:07:34;;;;;;;10.77;4.43;;;;;;;;;;5076955;28;20051;-68
2023/01/04 00:10:00;;;;;;;9.68;4.55;;;;;;;;;;5073872;28;20097;-67
2023/01/04 00:12:27;;;;;;;8.55;4.20;;;;;;;;;;5085854;28;20039;-68
2023/01/04 00:14:53;;;;;;;8.70;4.07;;;;;;;;;;5072490;28;20397;-68
2023/01/04 00:17:19;;;;;;;8.07;4.38;;;;;;;;;;5089520;28;20040;-68
2023/01/04 00:19:45;;;;;;;6.97;4.10;;;;;;;;;;5081530;28;20044;-68
2023/01/04 00:22:11;;;;;;;7.63;4.45;;;;;;;;;;5075036;28;20040;-68
2023/01/04 00:24:37;;;;;;;8.52;4.28;;;;;;;;;;5089452;28;20456;-68
2023/01/04 00:27:04;;;;;;;7.75;4.55;;;;;;;;;;5075169;28;20510;-68
2023/01/04 00:29:32;;;;;;;9.27;3.95;;;;;;;;;;5101268;27;20048;-68
2023/01/04 00:31:58;;;;;;;9.18;4.72;;;;;;;;;;5076792;28;20474;-68
2023/01/04 00:34:24;;;;;;;13.52;4.65;;;;;;;;;;5107680;27;20063;-68
2023/01/04 00:36:50;;;;;;;6.38;3.92;;;;;;;;;;5077880;28;20058;-68
2023/01/04 00:39:17;;;;;;;6.90;4.65;;;;;;;;;;5077100;28;20049;-68
2023/01/04 00:41:51;;;;;;;7.38;4.55;;;;;;;;;;5074732;28;20101;-68
2023/01/04 00:44:20;;;;;;;7.32;4.57;;;;;;;;;;5091558;28;20473;-68
2023/01/04 00:46:46;;;;;;;5.65;3.55;;;;;;;;;;5085002;28;20127;-68
2023/01/04 00:49:13;;;;;;;9.38;4.00;;;;;;;;;;5092282;28;20071;-68
2023/01/04 00:51:40;;;;;;;9.00;4.05;;;;;;;;;;5079270;28;20044;-68
2023/01/04 00:54:07;;;;;;;8.75;3.83;;;;;;;;;;5082196;28;20067;-68
2023/01/04 00:56:34;;;;;;;8.68;3.90;;;;;;;;;;5094902;28;20063;-68
2023/01/04 00:59:01;;;;;;;7.50;4.05;;;;;;;;;;5096467;28;20424;-68
2023/01/04 01:01:28;;;;;;;12.50;4.60;;;;;;;;;;5076194;28;20036;-68
2023/01/04 01:03:58;;;;;;;11.30;3.97;;;;;;;;;;5086480;28;20063;-68
2023/01/04 01:06:25;;;;;;;9.15;4.30;;;;;;;;;;5082127;28;20081;-68
2023/01/04 01:08:51;;;;;;;6.72;3.97;;;;;;;;;;5076815;28;20044;-68
2023/01/04 01:11:17;;;;;;;8.85;3.75;;;;;;;;;;5051267;28;20037;-68
2023/01/04 01:13:44;;;;;;;6.93;3.63;;;;;;;;;;5075692;28;20043;-68
2023/01/04 01:16:12;;;;;;;7.60;3.95;;;;;;;;;;5089589;28;20520;-67
2023/01/04 01:18:38;;;;;;;7.80;4.32;;;;;;;;;;5090046;28;20391;-67
2023/01/04 01:21:05;;;;;;;6.18;3.80;;;;;;;;;;5074696;28;20401;-68
2023/01/04 01:23:31;;;;;;;5.68;4.00;;;;;;;;;;5089976;28;20050;-68
2023/01/04 01:26:01;;;;;;;5.70;3.58;;;;;;;;;;5069985;28;20043;-68
2023/01/04 01:28:28;;;;;;;10.30;4.20;;;;;;;;;;5092646;28;20054;-68
2023/01/04 01:30:54;;;;;;;6.50;4.07;;;;;;;;;;5081942;28;20043;-68
2023/01/04 01:33:20;;;;;;;9.85;3.95;;;;;;;;;;5076406;28;20059;-68
2023/01/04 01:35:46;;;;;;;5.80;3.83;;;;;;;;;;5055718;28;20268;-68
2023/01/04 01:38:12;;;;;;;6.78;3.80;;;;;;;;;;5073568;28;20102;-68
2023/01/04 01:40:42;;;;;;;8.02;3.90;;;;;;;;;;5093467;28;20659;-68
2023/01/04 01:43:31;;;;;;;6.97;3.95;;;;;;;;;;5093024;28;20036;-68
2023/01/04 01:45:57;;;;;;;5.88;3.30;;;;;;;;;;5080453;28;20133;-67
2023/01/04 01:48:27;;;;;;;8.82;3.60;;;;;;;;;;5089287;28;20070;-68
2023/01/04 01:50:55;;;;;;;10.05;3.30;;;;;;;;;;5090111;28;20575;-68
2023/01/04 01:53:22;;;;;;;6.55;3.38;;;;;;;;;;5094610;28;20133;-67
2023/01/04 01:55:49;;;;;;;5.90;3.00;;;;;;;;;;5086876;28;20179;-67
2023/01/04 01:58:21;;;;;;;6.80;2.85;;;;;;;;;;5081889;28;20175;-67
2023/01/04 02:00:47;;;;;;;4.83;2.63;;;;;;;;;;5075045;28;20481;-67
2023/01/04 02:03:16;;;;;;;5.68;2.58;;;;;;;;;;5087723;28;20042;-67
2023/01/04 02:05:43;;;;;;;5.53;2.67;;;;;;;;;;5085997;28;20050;-68
2023/01/04 02:08:10;;;;;;;4.93;3.03;;;;;;;;;;5095466;28;20067;-67
2023/01/04 02:10:36;;;;;;;6.88;2.55;;;;;;;;;;5075528;28;20039;-67
2023/01/04 02:13:05;;;;;;;3.95;2.47;;;;;;;;;;5075403;28;20059;-67
2023/01/04 02:15:37;;;;;;;5.30;2.83;;;;;;;;;;5084573;28;20037;-68
2023/01/04 02:18:13;;;;;;;5.85;2.70;;;;;;;;;;5112802;27;20035;-68
2023/01/04 02:20:44;;;;;;;4.20;2.65;;;;;;;;;;5086076;28;20039;-67
2023/01/04 02:23:40;;;;;;;4.57;2.45;;;;;;;;;;5094492;28;20115;-67
2023/01/04 02:26:25;;;;;;;3.15;2.17;;;;;;;;;;5085960;28;20331;-67
2023/01/04 02:29:06;;;;;;;3.25;2.45;;;8.50;99.90;;;;;;5102775;28;20056;-67
2023/01/04 02:31:57;;;;;;;4.93;2.05;;;8.60;99.90;;;;;;5089446;28;20044;-67
2023/01/04 02:34:54;;;;;;;4.07;2.42;;;8.60;99.90;;;;;;5082435;28;20131;-66
2023/01/04 02:37:41;;;;;;;3.72;2.35;;;8.60;99.90;;;;;;5089328;28;20451;-68
2023/01/04 02:40:42;;;;;;;5.10;1.98;;;8.60;99.90;;;;;;5079262;28;20031;-67
2023/01/04 02:46:25;;;;;;;3.00;1.98;;;8.60;99.90;;;;;;5074134;28;20124;-68
2023/01/04 02:51:37;;;;;;;4.30;2.03;;;8.60;99.90;;;;;;5071880;28;20068;-67
2023/01/04 02:54:07;;;;;;;3.67;2.10;;;8.70;99.90;;;;;;5094505;28;20293;-67
2023/01/04 02:57:00;;;;;;;3.75;2.00;;;8.70;99.90;;;;;;5089059;28;20478;-68
2023/01/04 02:59:26;;;;;;;;;;;8.70;99.90;;;;;;5075675;28;20097;-67
2023/01/04 03:08:17;;;;;;;3.53;1.92;;;;;;;;;;5092051;28;20131;-67
2023/01/04 03:10:46;;;;;;;3.00;2.15;;;;;;;;;;5051048;28;20048;-68
2023/01/04 03:13:30;;;;;;;7.40;3.92;;;8.80;99.90;;;;;;5089230;28;20044;-68
2023/01/04 03:16:19;;;;;;;3.13;2.22;;;9.00;99.90;;;;;;5072749;28;20097;-67
2023/01/04 03:18:47;;;;;;;4.32;2.58;;;;;;;;;;5070105;28;20047;-67
2023/01/04 03:21:15;;;;;;;4.78;2.75;;;;;;;;;;5097133;28;20077;-67
2023/01/04 03:43:08;;;;;;;4.97;3.58;;;;;;;;;;5072252;28;20056;-67
2023/01/04 03:49:18;;;;;;;6.03;4.30;;;;;;;;;;5087651;28;20040;-67
2023/01/04 03:51:45;;;;;;;6.82;4.07;;;;;;;;;;5074879;28;20040;-67
2023/01/04 03:54:15;;;;;;;5.97;4.70;;;;;;;;;;5054555;28;20282;-67
2023/01/04 03:56:43;;;;;;;6.93;4.38;;;;;;;;;;5088797;28;20513;-67
2023/01/04 03:59:10;;;;;;;5.63;4.93;;;;;;;;;;5089798;28;20044;-67
2023/01/04 04:01:36;;;;;;;6.72;5.47;;;;;;;;;;5071409;28;20044;-67
2023/01/04 04:09:32;;;;;;;7.40;5.10;;;;;;;;;;5087684;28;20215;-67
2023/01/04 04:11:58;;;;;;;7.22;5.00;;;;;;;;;;5083992;28;20512;-66
2023/01/04 04:14:24;;;;;;;13.18;5.25;;;;;;;;;;5087095;28;20035;-66
2023/01/04 04:16:50;;;;;;;9.90;4.75;;;9.10;99.90;;;;;;5082975;28;20054;-66
2023/01/04 04:19:16;;;;;;;12.48;5.32;;;9.70;99.90;;;;;;5057997;28;20426;-67
2023/01/04 04:21:42;;;;;;;8.55;5.47;;;9.80;99.90;;;;;;5068304;28;20040;-66
2023/01/04 04:24:16;;;;;;;9.45;4.90;;;9.80;99.90;;;;;;5086724;28;20043;-66
2023/01/04 04:26:42;;;;;;;12.80;6.00;;;9.80;99.90;;;;;;5106572;28;20089;-67
2023/01/04 04:29:08;;;;;;;8.98;4.70;;;9.90;99.90;;;;;;5104792;28;20509;-66
2023/01/04 04:31:33;;;;;;;7.90;4.63;;;9.90;99.90;;;;;;5075830;28;20032;-66
2023/01/04 04:33:59;;;;;;;6.97;4.13;;;9.90;99.90;;;;;;5084514;28;20064;-66
2023/01/04 04:36:25;;;;;;;10.55;5.55;;;10.00;99.90;;;;;;5085403;28;20045;-67
2023/01/04 04:38:50;;;;;;;10.55;4.93;;;10.00;99.90;;;;;;5082610;28;20047;-67
2023/01/04 04:44:01;;;;;;;8.52;4.40;;;;;;;;;;5102536;28;20044;-66
2023/01/04 04:46:27;;;;;;;8.75;4.25;;;;;;;;;;5053453;28;20390;-66
2023/01/04 04:48:53;;;;;;;6.40;3.70;;;;;;;;;;5055305;28;20194;-67
2023/01/04 04:51:19;;;;;;;7.95;3.92;;;;;;;;;;5085003;28;20055;-66
2023/01/04 04:53:45;;;;;;;4.63;3.35;;;;;;;;;;5074458;28;20226;-67
2023/01/04 04:56:12;;;;;;;4.72;3.28;;;;;;;;;;5084572;28;20044;-68
2023/01/04 04:58:37;;;;;;;3.83;2.70;;;10.10;99.90;;;;;;5088481;28;20044;-67
2023/01/04 05:01:04;;;;;;;7.43;2.92;;;;;;;;;;5101034;28;20599;-67
2023/01/04 05:03:30;;;;;;;7.35;4.65;;;;;;;;;;5086731;28;20377;-67
2023/01/04 05:05:56;;;;;;;6.47;3.38;;;;;;;;;;5091473;28;20040;-67
2023/01/04 05:08:22;;;;;;;7.13;2.40;;;;;;;;;;5083622;28;20124;-68
2023/01/04 05:10:48;;;;;;;6.13;2.78;;;;;;;;;;5086563;28;20490;-67
2023/01/04 05:13:15;;;;;;;9.38;2.70;;;;;;;;;;5078037;28;20036;-67
2023/01/04 05:15:48;;;;;;;9.40;3.38;;;;;;;;;;5090000;28;20122;-67
2023/01/04 05:18:15;;;;;;;4.63;2.30;;;;;;;;;;5073431;28;20036;-67
2023/01/04 05:20:41;;;;;;;9.40;2.95;;;10.50;99.90;;;;;;5088232;28;20040;-67
2023/01/04 05:23:07;;;;;;;6.57;2.38;;;;;;;;;;5093973;28;20040;-67
2023/01/04 05:25:34;;;;;;;5.18;2.28;;;;;;;;;;5090945;28;20069;-68
2023/01/04 05:28:00;;;;;;;6.18;2.70;;;;;;;;;;5073272;28;20414;-67
2023/01/04 05:33:32;;;;;;;6.65;3.75;;;;;;;;;;5030897;28;20050;-67
2023/01/04 05:35:59;;;;;;;5.40;3.67;;;;;;;;;;5033953;28;20056;-67
2023/01/04 05:38:25;;;;;;;6.72;3.80;;;;;;;;;;5062370;28;20157;-67
2023/01/04 05:40:52;;;;;;;6.20;4.07;;;;;;;;;;5074875;28;20039;-67
2023/01/04 05:43:19;;;;;;;7.50;3.53;;;;;;;;;;5060033;28;20214;-67
2023/01/04 05:45:50;;;;;;;6.95;3.50;;;;;;;;;;5071658;28;20040;-68
2023/01/04 05:48:16;;;;;;;5.50;3.10;;;;;;;;;;5094510;27;20075;-67
2023/01/04 05:50:44;;;;;;;4.78;3.22;;;;;;;;;;5081278;28;20398;-68
2023/01/04 05:53:11;;;;;;;6.53;3.42;;;;;;;;;;5094749;27;20111;-68
2023/01/04 05:55:37;;;;;;;8.25;3.08;;;;;;;;;;5061062;28;20036;-67
2023/01/04 05:58:04;;;;;;;5.82;3.17;;;;;;;;;;5075818;28;20090;-67
2023/01/04 06:00:30;;;;;;;6.47;3.97;;;;;;;;;;5079429;28;20075;-67
2023/01/04 06:02:56;;;;;;;7.15;3.60;;;;;;;;;;5070349;28;20044;-67
2023/01/04 06:05:23;;;;;;;6.15;3.92;;;;;;;;;;5087174;28;20032;-67
2023/01/04 06:07:49;;;;;;;7.88;3.47;;;;;;;;;;5064688;28;20039;-67
2023/01/04 06:10:16;;;;;;;9.32;3.78;;;;;;;;;;5068803;28;20127;-67
2023/01/04 06:12:42;;;;;;;8.00;3.55;;;;;;;;;;5072054;28;20101;-68
2023/01/04 06:15:08;;;;;;;7.70;3.08;;;;;;;;;;5087054;28;20502;-68
2023/01/04 06:17:35;;;;;;;14.23;3.90;;;;;;;;;;5079690;28;20082;-69
2023/01/04 06:20:01;;;;;;;9.35;3.95;;;;;;;;;;5088077;28;20388;-68
2023/01/04 06:22:28;;;;;;;8.88;2.95;;;;;;;;;;5102966;28;20047;-68
2023/01/04 06:24:54;;;;;;;9.13;3.17;;;;;;;;;;5102621;27;20074;-67
2023/01/04 06:27:20;;;;;;;11.25;3.75;;;;;;;;;;5073777;28;20494;-68
2023/01/04 06:29:46;;;;;;;5.25;3.17;;;;;;;;;;5066659;28;20605;-67
2023/01/04 06:32:13;;;;;;;9.35;3.42;;;;;;;;;;5066151;28;20043;-67
2023/01/04 06:34:38;;;;;;;10.40;3.92;;;10.50;99.90;;;;;;5066164;28;20051;-68
2023/01/04 06:37:04;;;;;;;11.25;4.47;;;10.60;99.90;;;;;;5069022;28;20044;-68
2023/01/04 06:39:30;;;;;;;11.85;3.22;;;10.60;99.90;;;;;;5067711;28;20061;-67
2023/01/04 06:41:56;;;;;;;8.82;4.13;;;10.60;99.90;;;;;;5065422;28;20055;-68
2023/01/04 06:44:22;;;;;;;14.10;4.25;;;10.60;99.90;;;;;;5064565;28;20445;-67
2023/01/04 06:46:48;;;;;;;13.93;4.30;;;10.60;99.90;;;;;;5071238;28;21048;-67
2023/01/04 06:49:13;;;;;;;10.68;3.30;;;10.60;99.90;;;;;;5066411;28;20043;-68
2023/01/04 06:51:39;;;;;;;14.60;4.18;;;10.60;99.90;;;;;;5063227;28;20044;-67
2023/01/04 06:54:06;;;;;;;13.80;4.13;;;10.70;99.90;;;;;;5059821;28;20032;-67
2023/01/04 06:56:32;;;;;;;12.32;4.53;;;10.70;99.90;;;;;;5099923;28;20113;-68
2023/01/04 06:58:58;;;;;;;9.00;4.03;;;10.70;99.90;;;;;;5071803;28;20557;-67
2023/01/04 07:01:24;;;;;;;12.90;4.35;;;10.70;99.90;;;;;;5064886;28;20040;-68
2023/01/04 07:03:50;;;;;;;8.50;4.00;;;10.70;99.90;;;;;;5098946;27;20041;-67
2023/01/04 07:06:16;;;;;;;13.00;4.32;;;10.80;99.90;;;;;;5067747;28;20048;-68
2023/01/04 07:08:42;;;;;;;12.13;5.13;;;10.80;99.90;;;;;;5072496;28;20043;-67
2023/01/04 07:11:07;;;;;;;12.95;4.55;;;10.80;99.90;;;;;;5067601;28;20076;-67
2023/01/04 07:13:33;;;;;;;12.75;4.75;;;10.80;99.90;;;;;;5069327;28;20040;-68
2023/01/04 07:15:59;;;;;;;8.52;3.40;;;10.80;99.90;;;;;;5071213;28;20083;-68
2023/01/04 07:18:25;;;;;;;11.30;4.22;;;10.80;99.90;;;;;;5096854;27;20041;-67
2023/01/04 07:20:51;;;;;;;12.45;5.38;;;10.80;99.90;;;;;;5065290;28;20071;-68
2023/01/04 07:23:16;;;;;;;20.77;5.80;;;10.80;99.90;;;;;;5052464;28;20169;-67
2023/01/04 07:25:42;;;;;;;15.73;4.97;;;10.80;99.90;;;;;;5065474;28;20044;-68
2023/01/04 07:28:08;;;;;;;12.18;5.18;;;10.70;99.90;;;;;;5102599;27;20060;-68
2023/01/04 07:30:34;;;;;;;18.98;5.45;;;10.70;99.90;;;;;;5068807;28;20075;-67
2023/01/04 07:33:00;;;;;;;16.23;5.45;;;10.70;99.90;;;;;;5065843;28;20036;-67
2023/01/04 07:35:26;;;;;;;19.83;5.53;;;10.70;99.90;;;;;;5064706;28;20091;-68
2023/01/04 07:37:52;;;;;;;15.15;5.07;;;10.70;99.90;;;;;;5066910;28;20402;-67
2023/01/04 07:40:18;;;;;;;10.23;4.45;;;10.70;99.90;;;;;;5064836;28;20044;-67
2023/01/04 07:42:44;;;;;;;10.80;4.40;;;10.70;99.90;;;;;;5065241;28;20040;-67
2023/01/04 07:45:10;;;;;;;18.50;5.78;;;;;;;;;;5045744;28;20469;-68
2023/01/04 07:47:36;;;;;;;18.25;4.75;;;;;;;;;;5064957;28;20121;-68
2023/01/04 07:50:06;;;;;;;15.90;5.20;;;;;;;;;;5069989;28;20854;-67
2023/01/04 07:52:32;;;;;;;16.80;5.10;;;;;;;;;;5032765;28;20044;-67
2023/01/04 07:54:58;;;;;;;10.75;4.32;;;;;;;;;;5061367;28;20044;-68
2023/01/04 07:57:24;;;;;;;13.05;4.85;;;;;;;;;;5064465;28;20076;-68
2023/01/04 07:59:50;;;;;;;15.55;4.72;;;;;;;;;;5067325;28;20033;-68
2023/01/04 08:02:17;;;;;;;12.57;4.05;;;;;;;;;;5066046;28;20044;-67
2023/01/04 08:04:46;;;;;;;10.18;4.18;;;;;;;;;;5036172;28;20512;-67
2023/01/04 08:07:13;;;;;;;11.82;3.50;;;;;;;;;;5064116;28;20559;-67
2023/01/04 08:09:40;;;;;;;10.68;4.60;;;;;;;;;;5058395;28;20261;-67
2023/01/04 08:12:06;;;;;;;11.77;3.45;;;;;;;;;;5064359;28;20044;-67
2023/01/04 08:14:32;;;;;;;11.93;5.05;;;;;;;;;;5069504;28;20641;-68
2023/01/04 08:16:58;;;;;;;11.23;4.03;;;;;;;;;;5047034;28;21512;-67
2023/01/04 08:19:25;;;;;;;10.15;3.83;;;;;;;;;;5057491;28;20556;-68
2023/01/04 08:21:51;;;;;;;11.40;4.35;;;;;;;;;;5067641;28;20456;-67
2023/01/04 08:24:18;;;;;;;14.10;3.83;;;;;;;;;;5066201;28;20395;-67
2023/01/04 08:26:44;;;;;;;7.90;3.28;;;;;;;;;;5071085;28;20037;-67
2023/01/04 08:29:11;;;;;;;14.98;4.47;;;;;;;;;;5107835;28;20078;-67
2023/01/04 08:31:37;;;;;;;13.43;3.63;;;;;;;;;;5064311;28;20055;-67
2023/01/04 08:34:05;;;;;;;10.10;4.75;;;;;;;;;;5064542;28;20510;-68
2023/01/04 08:36:33;;;;;;;10.35;4.38;;;;;;;;;;5057869;28;20121;-67
2023/01/04 08:39:01;;;;;;;10.13;4.55;;;;;;;;;;5042644;28;21333;-67
2023/01/04 08:41:27;;;;;;;8.90;4.50;;;;;;;;;;5066390;28;20040;-67
2023/01/04 08:43:53;;;;;;;11.60;5.07;;;;;;;;;;5060813;28;20052;-67
2023/01/04 08:46:19;;;;;;;13.05;4.25;;;;;;;;;;5093291;28;20448;-67
2023/01/04 08:48:45;;;;;;;13.50;5.03;;;;;;;;;;5066698;28;20674;-68
2023/01/04 08:51:13;;;;;;;16.10;4.85;;;;;;;;;;5070585;28;20072;-67
2023/01/04 08:53:39;;;;;;;11.38;4.70;;;10.70;99.90;;;;;;5072995;28;20040;-67
2023/01/04 08:56:06;;;;;;;13.30;4.47;;;10.80;99.90;;;;;;5068726;28;20040;-67
2023/01/04 08:58:34;;;;;;;16.13;4.82;;;10.90;99.90;;;;;;5066418;28;20048;-68
2023/01/04 09:01:02;;;;;;;14.60;5.03;;;10.80;99.90;;;;;;5064608;28;20389;-68
2023/01/04 09:03:28;;;;;;;14.25;5.63;;;10.80;99.90;;;;;;5064679;28;20076;-68
2023/01/04 09:06:02;;;;;;;8.05;4.72;;;10.80;99.90;;;;;;5062893;28;20183;-68
2023/01/04 09:08:29;;;;;;;17.05;4.93;;;10.80;99.90;;;;;;5073075;28;20040;-68
2023/01/04 09:10:54;;;;;;;12.82;5.57;;;10.90;99.90;;;;;;5068125;28;20493;-68
2023/01/04 09:13:20;;;;;;;15.43;5.40;;;10.90;99.90;;;;;;5075277;28;20066;-68
2023/01/04 09:15:46;;;;;;;17.30;5.90;;;10.90;99.90;;;;;;5072178;28;20040;-68
2023/01/04 09:18:12;;;;;;;14.82;5.00;;;10.90;99.90;;;;;;5101268;27;20097;-68
2023/01/04 09:20:38;;;;;;;20.58;5.85;;;10.90;99.90;;;;;;5068287;28;20510;-67
2023/01/04 09:23:04;;;;;;;14.27;5.15;;;10.90;99.90;;;;;;5070020;28;20036;-68
2023/01/04 09:25:29;;;;;;;17.20;6.43;;;10.90;99.90;;;;;;5067848;28;20113;-68
2023/01/04 09:27:57;;;;;;;17.98;5.88;;;10.90;99.90;;;;;;5097035;28;20063;-68
2023/01/04 09:30:22;;;;;;;15.02;7.40;;;10.90;99.90;;;;;;5069843;28;20036;-68
2023/01/04 09:32:48;;;;;;;20.50;6.30;;;10.90;99.90;;;;;;5066559;28;20170;-67
2023/01/04 09:35:14;;;;;;;17.27;7.00;;;10.90;99.90;;;;;;5066961;28;20522;-68
2023/01/04 09:37:40;;;;;;;26.80;6.93;;;10.90;99.90;;;;;;5062228;28;20106;-68
2023/01/04 09:40:06;;;;;;;26.15;8.80;;;11.00;99.90;;;;;;5102097;27;20055;-68
2023/01/04 09:42:38;;;;;;;21.58;8.70;;;11.00;99.90;;;;;;5065410;28;20042;-68
2023/01/04 09:45:13;;;;;;;16.20;7.10;;;11.00;99.90;;;;;;5100592;27;20127;-68
2023/01/04 09:48:05;;;;;;;25.25;7.75;;;11.00;99.90;;;;;;5065654;28;20049;-67
2023/01/04 09:50:36;;;;;;;22.38;7.13;;;11.00;99.90;;;;;;5070951;28;20051;-67
2023/01/04 09:53:15;;;;;;;22.48;7.50;;;11.00;99.90;;;;;;5066762;28;20045;-68
2023/01/04 09:55:46;;;;;;;22.15;7.53;;;11.00;99.90;;;;;;5067005;28;20036;-68
2023/01/04 09:58:38;;;;;;;20.40;7.57;;;11.10;99.90;;;;;;5069925;28;20097;-68
2023/01/04 10:01:07;;;;;;;21.77;7.93;;;;;;;;;;5065634;28;20036;-68
2023/01/04 10:03:37;;;;;;;22.88;7.45;;;;;;;;;;5064237;28;20087;-67
2023/01/04 10:06:05;;;;;;;18.58;6.90;;;;;;;;;;5072503;28;20048;-68
2023/01/04 10:08:31;;;;;;;22.27;7.43;;;;;;;;;;5065505;28;20040;-68
2023/01/04 10:11:16;;;;;;;24.00;6.78;;;;;;;;;;5066584;28;20049;-68
2023/01/04 10:13:59;;;;;;;24.33;7.72;;;;;;;;;;5043200;28;20045;-68
2023/01/04 10:16:40;;;;;;;25.55;7.45;;;;;;;;;;5073446;28;20067;-68
2023/01/04 10:19:06;;;;;;;15.75;7.47;;;;;;;;;;5063790;28;20056;-68
2023/01/04 10:21:39;;;;;;;31.38;6.72;;;;;;;;;;5066575;28;20036;-68
2023/01/04 10:24:31;;;;;;;18.80;8.55;;;;;;;;;;5061791;28;20066;-68
2023/01/04 10:27:08;;;;;;;19.33;7.28;;;;;;;;;;5069215;28;20036;-68
2023/01/04 10:29:53;;;;;;;34.42;7.57;;;;;;;;;;5050384;28;20070;-68
2023/01/04 10:32:28;;;;;;;22.23;8.48;;;;;;;;;;5060647;28;20051;-68
2023/01/04 10:34:54;;;;;;;24.48;7.72;;;;;;;;;;5065013;28;20083;-68
2023/01/04 10:37:23;;;;;;;31.80;9.10;;;;;;;;;;5072623;28;20051;-68
2023/01/04 10:39:50;;;;;;;24.27;8.02;;;;;;;;;;5068190;28;20286;-68
2023/01/04 10:42:16;;;;;;;35.25;9.85;;;;;;;;;;5066978;28;20033;-68
2023/01/04 10:44:54;;;;;;;26.40;8.68;;;;;;;;;;5102463;27;20033;-67
2023/01/04 10:47:26;;;;;;;29.50;9.20;;;;;;;;;;5085616;28;20119;-67
2023/01/04 10:49:55;;;;;;;17.08;7.95;;;;;;;;;;5095271;27;20052;-67
2023/01/04 10:52:27;;;;;;;27.00;8.15;;;;;;;;;;5065069;28;20040;-67
2023/01/04 10:55:12;;;;;;;25.13;8.93;;;;;;;;;;5071696;28;20043;-67
2023/01/04 10:57:41;;;;;;;26.70;8.07;;;;;;;;;;5059068;28;20045;-67
2023/01/04 11:00:12;;;;;;;21.90;7.30;;;;;;;;;;5096745;27;20044;-67
2023/01/04 11:02:45;;;;;;;23.65;7.18;;;;;;;;;;5067212;28;20044;-67
2023/01/04 11:05:21;;;;;;;27.90;7.93;;;;;;;;;;5055848;28;20040;-67
2023/01/04 11:07:51;;;;;;;22.20;7.25;;;;;;;;;;5061898;28;20068;-67
2023/01/04 11:10:20;;;;;;;20.95;7.50;;;;;;;;;;5057319;28;20040;-67
2023/01/04 11:12:46;;;;;;;15.40;7.05;;;;;;;;;;5066169;28;20032;-67
2023/01/04 11:15:12;;;;;;;21.98;8.02;;;;;;;;;;5050960;28;20371;-67
2023/01/04 11:17:40;;;;;;;26.58;8.95;;;;;;;;;;5072449;28;20406;-67
2023/01/04 11:20:06;;;;;;;33.38;8.35;;;;;;;;;;5073282;28;20044;-67
2023/01/04 11:22:44;;;;;;;27.02;8.38;;;;;;;;;;5071393;28;20513;-67
2023/01/04 11:25:17;;;;;;;29.83;8.63;;;;;;;;;;5061922;28;20037;-67
2023/01/04 11:28:06;;;;;;;31.45;9.18;;;;;;;;;;5060515;28;20092;-67
2023/01/04 11:30:40;;;;;;;27.33;8.27;;;;;;;;;;5059259;28;20068;-67
2023/01/04 11:33:19;;;;;;;30.58;8.43;;;;;;;;;;5091170;27;20054;-67
2023/01/04 11:35:50;;;;;;;23.50;8.80;;;;;;;;;;5058769;28;20040;-67
2023/01/04 11:38:29;;;;;;;26.55;7.95;;;;;;;;;;5087694;28;20040;-67
2023/01/04 11:40:57;;;;;;;21.67;7.95;;;;;;;;;;5058245;28;20040;-67
2023/01/04 11:43:24;;;;;;;21.75;7.72;;;;;;;;;;5087697;28;20032;-67
2023/01/04 11:45:55;;;;;;;21.38;8.10;;;;;;;;;;5068903;28;20157;-67
2023/01/04 11:48:32;;;;;;;32.05;8.48;;;;;;;;;;5053263;28;20051;-67
2023/01/04 11:50:58;;;;;;;24.23;8.63;;;;;;;;;;5072915;28;20068;-68
2023/01/04 11:53:32;;;;;;;27.08;14.73;;;11.10;99.90;;;;;;5086973;28;20038;-67
2023/01/04 11:56:09;;;;;;;63.67;35.25;;;11.70;99.90;;;;;;5083274;28;20067;-67
2023/01/04 11:58:36;;;;;;;24.98;10.15;;;11.70;99.90;;;;;;5066509;28;20104;-67
2023/01/04 12:01:01;;;;;;;26.02;10.85;;;11.70;99.90;;;;;;5094996;27;20036;-67
2023/01/04 12:03:39;;;;;;;25.70;8.32;;;11.70;99.90;;;;;;5080435;28;20032;-67
2023/01/04 12:06:25;;;;;;;15.38;7.53;;;11.70;99.90;;;;;;5069653;28;20039;-67
2023/01/04 12:08:51;;;;;;;26.35;6.72;;;11.70;99.90;;;;;;5075458;28;20035;-67
2023/01/04 12:11:54;;;;;;;14.82;6.95;;;11.70;99.90;;;;;;5091392;28;20118;-67
2023/01/04 12:14:27;;;;;;;13.30;5.32;;;11.70;99.90;;;;;;5047072;28;20509;-67
2023/01/04 12:16:56;;;;;;;;;;;11.70;99.90;;;;;;5060699;28;20063;-67
2023/01/04 12:19:24;;;;;;;11.57;5.65;;;11.70;99.90;;;;;;5067414;28;19939;-67
2023/01/04 12:21:57;;;;;;;11.68;5.50;;;11.70;99.90;;;;;;5082206;28;20578;-67
2023/01/04 12:24:31;;;;;;;16.55;7.15;;;11.70;99.90;;;;;;5077938;28;20117;-68
2023/01/04 12:26:59;;;;;;;15.32;5.63;;;;;;;;;;5073948;28;20036;-67
2023/01/04 12:29:25;;;;;;;22.27;6.13;;;;;;;;;;5098518;28;20078;-67
2023/01/04 12:32:16;;;;;;;13.07;5.15;;;;;;;;;;5077600;28;20497;-67
2023/01/04 12:34:46;;;;;;;12.60;4.93;;;;;;;;;;5069852;28;20156;-67
2023/01/04 12:37:30;;;;;;;10.43;5.18;;;;;;;;;;5093726;28;20051;-67
2023/01/04 12:39:56;;;;;;;15.77;4.18;;;;;;;;;;5075614;28;20044;-67
2023/01/04 12:42:26;;;;;;;13.52;4.82;;;;;;;;;;5077135;28;20150;-67
2023/01/04 12:44:52;;;;;;;13.43;4.30;;;;;;;;;;5094462;28;20085;-67
2023/01/04 12:50:02;;;;;;;8.48;4.43;;;;;;;;;;5093735;28;20040;-66
2023/01/04 12:52:28;;;;;;;14.00;4.57;;;;;;;;;;5078121;28;20397;-67
2023/01/04 12:55:21;;;;;;;11.68;4.25;;;;;;;;;;5076646;28;20073;-67
2023/01/04 12:57:47;;;;;;;9.95;4.30;;;;;;;;;;5096224;28;20039;-67
2023/01/04 13:00:15;;;;;;;16.83;6.35;;;;;;;;;;5100062;28;20500;-67
2023/01/04 13:02:51;;;;;;;10.32;4.90;;;;;;;;;;5093440;28;20077;-67
2023/01/04 13:05:17;;;;;;;12.63;5.82;;;;;;;;;;5092672;28;20514;-67
2023/01/04 13:07:43;;;;;;;10.40;5.07;;;;;;;;;;5094959;28;20058;-67
2023/01/04 13:10:18;;;;;;;10.70;4.50;;;;;;;;;;5092233;28;20078;-67
2023/01/04 13:13:11;;;;;;;21.90;5.75;;;;;;;;;;5085793;28;20192;-67
2023/01/04 13:15:56;;;;;;;20.98;5.72;;;;;;;;;;5050609;28;20194;-67
2023/01/04 13:18:42;;;;;;;24.20;6.13;;;;;;;;;;5069071;28;20040;-67
2023/01/04 13:21:13;;;;;;;16.20;6.28;;;;;;;;;;5081494;28;20039;-67
2023/01/04 13:23:40;;;;;;;18.35;5.43;;;;;;;;;;5091607;28;20039;-67
2023/01/04 13:26:33;;;;;;;26.17;6.95;;;;;;;;;;5081016;28;20403;-68
2023/01/04 13:29:12;;;;;;;17.02;5.85;;;;;;;;;;5068634;28;20432;-67
2023/01/04 13:31:57;;;;;;;18.02;5.93;;;;;;;;;;5103784;27;20048;-68
2023/01/04 13:34:33;;;;;;;12.68;5.70;;;;;;;;;;5093201;28;20032;-67
2023/01/04 13:37:06;;;;;;;12.70;5.30;;;;;;;;;;5074430;28;20029;-67
2023/01/04 13:39:32;;;;;;;22.67;6.03;;;;;;;;;;5069720;28;20044;-67
2023/01/04 13:41:59;;;;;;;23.00;7.22;;;;;;;;;;5091082;28;20083;-67
2023/01/04 13:44:25;;;;;;;17.90;5.30;;;;;;;;;;5094950;28;20454;-67
2023/01/04 13:46:54;;;;;;;21.98;6.03;;;;;;;;;;5084841;28;20040;-67
2023/01/04 13:49:20;;;;;;;15.82;6.63;;;;;;;;;;5080259;28;20085;-67
2023/01/04 13:51:46;;;;;;;18.23;5.82;;;;;;;;;;5083524;28;20044;-67
2023/01/04 13:54:20;;;;;;;27.15;5.88;;;;;;;;;;5061195;28;20025;-68
2023/01/04 13:56:51;;;;;;;19.33;6.75;;;;;;;;;;5064830;28;20495;-67
2023/01/04 13:59:19;;;;;;;23.17;6.10;;;;;;;;;;5080406;28;20090;-67
2023/01/04 14:01:47;;;;;;;28.50;14.85;;;;;;;;;;5073944;28;20396;-67
2023/01/04 14:04:26;;;;;;;58.97;28.50;;;;;;;;;;5093234;28;20164;-67
2023/01/04 14:06:56;;;;;;;53.15;29.25;;;;;;;;;;5089678;28;20568;-67
2023/01/04 14:09:24;;;;;;;24.20;10.07;;;;;;;;;;5074721;28;20474;-67
2023/01/04 14:11:58;;;;;;;27.27;7.90;;;;;;;;;;5073678;28;20306;-68
2023/01/04 14:14:52;;;;;;;16.33;6.75;;;;;;;;;;5086806;28;20052;-67
2023/01/04 14:17:23;;;;;;;13.68;5.93;;;;;;;;;;5087489;28;20192;-67
2023/01/04 14:19:52;;;;;;;27.17;7.45;;;;;;;;;;5082822;28;20070;-67
2023/01/04 14:22:18;;;;;;;17.08;6.32;;;;;;;;;;5071021;28;20444;-68
2023/01/04 14:24:44;;;;;;;15.68;6.22;;;;;;;;;;5068727;28;20047;-67
2023/01/04 14:27:30;;;;;;;18.65;6.28;;;;;;;;;;5088374;28;20123;-68
2023/01/04 14:29:57;;;;;;;22.45;6.15;;;;;;;;;;5074692;28;20079;-67
2023/01/04 14:32:23;;;;;;;18.60;7.72;;;;;;;;;;5087527;28;20117;-67
2023/01/04 14:34:49;;;;;;;16.90;6.13;;;;;;;;;;5101470;27;20086;-67
2023/01/04 14:37:15;;;;;;;13.75;5.47;;;;;;;;;;5083439;28;20489;-67
2023/01/04 14:39:42;;;;;;;15.32;7.30;;;;;;;;;;5084393;28;20063;-67
2023/01/04 14:42:25;;;;;;;12.35;5.68;;;;;;;;;;5088401;28;20465;-67
2023/01/04 14:44:51;;;;;;;;;;;;;;;;;;5083667;28;20051;-68
2023/01/04 14:47:17;;;;;;;29.00;7.70;;;;;;;;;;5102565;28;19919;-68
2023/01/04 14:49:43;;;;;;;19.35;5.70;;;;;;;;;;5086312;28;20115;-67
2023/01/04 14:52:10;;;;;;;17.58;6.00;;;;;;;;;;5080963;28;20078;-67
2023/01/04 14:54:38;;;;;;;25.90;5.65;;;;;;;;;;5090915;28;20039;-67
2023/01/04 14:57:04;;;;;;;25.23;7.82;;;;;;;;;;5064138;28;20051;-67
2023/01/04 14:59:30;;;;;;;16.70;6.22;;;11.70;99.90;;;;;;5074772;28;20038;-68
2023/01/04 15:01:57;;;;;;;19.10;6.57;;;11.40;99.90;;;;;;5100244;27;20043;-67
2023/01/04 15:04:23;;;;;;;28.05;6.43;;;11.40;99.90;;;;;;5071545;28;20039;-67